Laval, Canada
Current Conditions -  °F | °C
As of 1:00 PM on Thursday 18 Dec 2014 (Local Time) from CYUL Reporting Station
Light Snow Light Snow  
Wind Chill: 24°   Ceiling: 2200
Heat Index: 32°   Visibility: 15mi
Dew Point: 28°   Wind: 10mph
Humidity: 87%   Direction: 280°W
Pressure: 29.86"   Gusts: NA
Location:  45.55°N, 73.74°W
Report Text: CYUL 181800Z 28009KT 15SM -SN FEW008 BKN022 OVC043 00/M02 A2986 RMK SF1SC4SC3 SLP114
Loading
Personal Weather Stations






























Interactive Weather Map New forecast layout! Learn more

10-Day Weather Forecast

Advertisements
Track Severe Weather on mobile